Česky Dansk Deutsch English Español Suomi Français Magyar Italiano Nederlands norsk Polski Português svenska Türkçe

 

Het Weer

Alexandria Borg El Arab (Egypt)

14:00, 21 augustus 2016 (GMT)

NWNNE
WE
SWSSE
Home            
Alexandria Borg El Arab Alexandria / Nouzha Cairo Airport Port Said Mersa Matruh El Arish Paphos Airport Akrotiri El Tor Beer-Sheva Tel Aviv / Sde-Dov Airport Ben-Gurion International Airport Ovda Jerusalem Airport Sde-Haifa Haifa Taba Larnaca Airport Athalassa Asyut Eilat Ercan Aqaba Airport Karpathos Airport

Om een weerknop op uw website of weblog te plaatsen, copieer onderstaande code en plak die in uw pagina. In het eerste vakje staat HTML-code, in het tweede vakje UBB-code.


Add to Google

Details

Wind speed:4 bf, 12 kn, 6.2 m/s, 13.8 miles/h, 22.2 km/h
Wind direction:N, 350°
Celková viditeľnosť:Väčšia ako 10000 m, 10 km, 32800 ft, 6.2 miles
Clouds:CAVOC
Teplota:30°C, 86°F
Gefühlte Temperatur:32°C, 89°F
Rosným:20°C, 68°F
Atmosférický tlak:1011 hPa, 758.3 mmHg, 29.85 inHg, 0.998 atm
Relatívna vlhkosť vzduchu:55.1 %
METAR:HEBA 211400Z 35012KT CAVOK 30/20 Q1011 NOSIG

Snelkoppelingen

Actuele weersinformatie van de hele wereld. Voeg locaties toe met het plus (+) symbool. Deze snelkoppelingen kunnen worden toegevoegd aan Google.

Lid van de Technetium groep

website free tracking
StatCounter NetStat W3C Validator

18-11-2018 07:00:42
astro.technetium.be money.technetium.be phote.technetium.be tafeltennistafel.technetium.be www.ligfiets.net